Yellow Mule RAWS (NWS)

Elevation
9200ft
Aggregated by Synoptic Data
Date/Time Wind Direction Wind Speed knots Wind Gust knots RH % Accumulated Precip Inches Air Temp Fahrenheit
2024-02-22 06:04 SW 11 15 93 0.28 17
2024-02-22 05:04 SSW 5 12 94 0.28 18
2024-02-22 04:04 SSW 10 15 94 0.28 19
2024-02-22 03:04 SSW 9 14 94 0.28 18
2024-02-22 02:04 SSW 10 17 94 0.28 18
2024-02-22 01:04 SSW 8 11 92 0.28 18
2024-02-22 00:04 SW 9 12 83 0.28 19
2024-02-21 23:04 SW 7 10 80 0.28 20
2024-02-21 22:04 SW 10 14 80 0.28 19
2024-02-21 21:04 SW 9 11 78 0.28 19
2024-02-21 20:04 SW 6 10 76 0.28 20
2024-02-21 19:04 SW 7 13 73 0.28 21
2024-02-21 18:04 SW 9 13 66 0.28 21
2024-02-21 17:04 SW 7 12 56 0.28 25
2024-02-21 16:04 WSW 10 13 56 0.28 25
2024-02-21 15:04 SW 8 12 54 0.28 28
2024-02-21 14:04 WSW 7 11 51 0.28 30
2024-02-21 13:04 WSW 7 10 53 0.28 29
2024-02-21 12:04 WNW 7 10 54 0.28 29
2024-02-21 11:04 W 7 11 57 0.28 28
2024-02-21 10:04 WSW 9 12 61 0.28 25
2024-02-21 09:04 SSW 3 7 65 0.28 23
2024-02-21 08:04 S 3 6 81 0.28 17
2024-02-21 07:04 SSW 5 6 84 0.28 16
2024-02-21 06:04 S 3 6 93 0.28 16
2024-02-21 05:04 SSE 4 9 97 0.28 17
2024-02-21 04:04 SSE 5 6 96 0.28 17
2024-02-21 03:04 S 4 6 98 0.28 17
2024-02-21 02:04 SSE 3 5 96 0.28 17
2024-02-21 01:04 SSE 2 6 83 0.28 17
2024-02-21 00:04 SSE 3 8 88 0.28 17
2024-02-20 23:04 SSE 5 7 96 0.28 17
2024-02-20 22:04 SSE 3 9 80 0.28 18
2024-02-20 21:04 ESE 3 6 79 0.28 19
2024-02-20 20:04 ESE 3 10 82 0.28 19
2024-02-20 19:04 SSE 6 14 80 0.28 20
2024-02-20 18:04 S 10 27 67 0.28 23
2024-02-20 17:04 S 11 24 66 0.28 25
2024-02-20 16:04 S 16 31 64 0.28 27
2024-02-20 15:04 S 15 32 58 0.28 29
2024-02-20 14:04 S 14 30 70 0.28 26
2024-02-20 13:04 S 18 27 69 0.28 27
2024-02-20 12:04 S 18 26 64 0.28 26
2024-02-20 11:04 SSE 8 16 76 0.28 27
2024-02-20 10:04 SSE 8 10 83 0.28 26
2024-02-20 09:04 SE 5 9 93 0.28 21
2024-02-20 08:04 SSE 5 10 97 0.28 19
2024-02-20 07:04 SSE 6 8 96 0.28 17
2024-02-20 06:04 S 3 8 93 0.28 19